Weather at Landshut Airfield

Public forecast

Using degrees Celsius for public forecast. Weather courtesy of forecast.io.

Closest aviation weather report (METAR) to Landshut Airfield

Closest report is Munich Airport, 13.7 nm (25.3 km) SW.

2024/06/22 17:50 (retrieved 39 minutes ago)

EDDM 221750Z AUTO 04004KT 010V070 CAVOK 20/12 Q1013 TEMPO 32008KT SHRA BKN013 BKN035CB

Closest aviation forecast (TAF) to Landshut Airfield

Closest forecast is Munich Airport, 13.7 nm (25.3 km) SW.

2024/06/22 18:27 (retrieved 2 minutes ago)

TAF EDDM 221700Z 2218/2324 30008KT 9999 FEW045 PROB40 TEMPO 2218/2223 27015G25KT SHRA SCT012 BKN025CB BECMG 2218/2220 BKN012 PROB40 TEMPO 2221/2224 BKN007 BECMG 2301/2303 24003KT PROB30 TEMPO 2304/2307 BKN008 BECMG 2309/2311 04005KT FEW025